createdAt,value
2019-01-06T00:00:30.262Z,1038.71
2019-01-06T00:01:30.249Z,1038.75
2019-01-06T00:02:30.236Z,1038.77
2019-01-06T00:03:30.222Z,1038.83
2019-01-06T00:04:30.207Z,1038.8
2019-01-06T00:05:30.194Z,1038.82
2019-01-06T00:06:30.180Z,1038.79
2019-01-06T00:07:30.167Z,1038.78
2019-01-06T00:08:30.152Z,1038.78
2019-01-06T00:09:30.138Z,1038.73
2019-01-06T00:10:30.125Z,1038.75
2019-01-06T00:11:30.112Z,1038.69
2019-01-06T00:12:30.098Z,1038.72
2019-01-06T00:13:30.083Z,1038.71
2019-01-06T00:14:30.071Z,1038.69
2019-01-06T00:15:30.056Z,1038.71
2019-01-06T00:16:30.042Z,1038.7
2019-01-06T00:17:30.029Z,1038.69
2019-01-06T00:18:30.016Z,1038.67
2019-01-06T00:19:30.001Z,1038.69
2019-01-06T00:20:29.988Z,1038.68
2019-01-06T00:21:29.975Z,1038.67
2019-01-06T00:22:29.962Z,1038.71
2019-01-06T00:23:29.947Z,1038.69
2019-01-06T00:24:29.934Z,1038.71
2019-01-06T00:25:29.919Z,1038.73
2019-01-06T00:26:29.906Z,1038.74
2019-01-06T00:27:29.893Z,1038.75
2019-01-06T00:28:29.879Z,1038.81
2019-01-06T00:29:29.865Z,1038.8
2019-01-06T00:30:29.852Z,1038.81
2019-01-06T00:31:29.838Z,1038.86
2019-01-06T00:32:29.825Z,1038.88
2019-01-06T00:33:29.812Z,1038.92
2019-01-06T00:34:29.798Z,1038.9
2019-01-06T00:35:29.783Z,1038.91
2019-01-06T00:36:29.771Z,1038.97
2019-01-06T00:37:29.756Z,1039.03
2019-01-06T00:38:29.743Z,1039.08
2019-01-06T00:39:29.730Z,1039.1
2019-01-06T00:40:29.716Z,1039.15
2019-01-06T00:41:29.701Z,1039.17
2019-01-06T00:42:29.687Z,1039.27
2019-01-06T00:43:29.682Z,1039.32
2019-01-06T00:44:29.661Z,1039.38
2019-01-06T00:45:29.660Z,1039.48
2019-01-06T00:46:29.634Z,1039.53
2019-01-06T00:47:29.620Z,1039.58
2019-01-06T00:48:29.606Z,1039.56
2019-01-06T00:49:29.593Z,1039.6
2019-01-06T00:50:29.579Z,1039.54
2019-01-06T00:51:29.567Z,1039.59
2019-01-06T00:52:29.550Z,1039.62
2019-01-06T00:53:29.537Z,1039.6
2019-01-06T00:54:29.526Z,1039.62
2019-01-06T00:55:29.509Z,1039.52
2019-01-06T00:56:29.495Z,1039.56
2019-01-06T00:57:29.482Z,1039.51
2019-01-06T00:58:29.468Z,1039.46
2019-01-06T00:59:29.452Z,1039.49
2019-01-06T01:00:29.439Z,1039.44
2019-01-06T01:01:29.426Z,1039.45
2019-01-06T01:02:29.412Z,1039.47
2019-01-06T01:03:29.397Z,1039.49
2019-01-06T01:04:29.383Z,1039.49
2019-01-06T01:05:29.369Z,1039.53
2019-01-06T01:06:29.354Z,1039.62
2019-01-06T01:07:29.342Z,1039.66
2019-01-06T01:08:29.329Z,1039.65
2019-01-06T01:09:29.314Z,1039.79
2019-01-06T01:10:29.299Z,1039.85
2019-01-06T01:11:29.284Z,1039.9
2019-01-06T01:12:29.272Z,1039.94
2019-01-06T01:13:29.258Z,1040.05
2019-01-06T01:14:29.245Z,1040.11
2019-01-06T01:15:29.229Z,1040.18
2019-01-06T01:16:29.215Z,1040.2
2019-01-06T01:17:29.198Z,1040.28
2019-01-06T01:18:29.185Z,1040.34
2019-01-06T01:19:29.172Z,1040.39
2019-01-06T01:20:29.158Z,1040.45
2019-01-06T01:21:29.143Z,1040.46
2019-01-06T01:22:29.129Z,1040.47
2019-01-06T01:23:29.115Z,1040.47
2019-01-06T01:24:29.101Z,1040.47
2019-01-06T01:25:29.086Z,1040.44
2019-01-06T01:26:29.072Z,1040.44
2019-01-06T01:27:29.058Z,1040.46
2019-01-06T01:28:29.063Z,1040.44
2019-01-06T01:29:29.027Z,1040.42
2019-01-06T01:30:29.014Z,1040.5
2019-01-06T01:31:28.998Z,1040.49
2019-01-06T01:32:28.985Z,1040.55
2019-01-06T01:33:28.970Z,1040.56
2019-01-06T01:34:28.956Z,1040.66
2019-01-06T01:35:28.941Z,1040.75
2019-01-06T01:36:28.926Z,1040.76
2019-01-06T01:37:28.912Z,1040.85
2019-01-06T01:38:28.898Z,1040.86
2019-01-06T01:39:28.882Z,1040.96
2019-01-06T01:40:28.866Z,1040.99
2019-01-06T01:41:28.853Z,1040.97
2019-01-06T01:42:28.838Z,1041.02
2019-01-06T01:43:28.823Z,1041.02
2019-01-06T01:44:28.808Z,1041.06
2019-01-06T01:45:28.794Z,1041.1
2019-01-06T01:46:28.779Z,1041.13
2019-01-06T01:47:28.763Z,1041.16
2019-01-06T01:48:28.748Z,1041.22
2019-01-06T01:49:28.734Z,1041.26
2019-01-06T01:50:28.719Z,1041.3
2019-01-06T01:51:28.703Z,1041.32
2019-01-06T01:52:28.689Z,1041.36
2019-01-06T01:53:28.675Z,1041.37
2019-01-06T01:54:28.658Z,1041.39
2019-01-06T01:55:28.643Z,1041.42
2019-01-06T01:56:28.628Z,1041.43
2019-01-06T01:57:28.613Z,1041.45
2019-01-06T01:58:28.597Z,1041.39
2019-01-06T01:59:28.584Z,1041.44
2019-01-06T02:00:28.566Z,1041.46
2019-01-06T02:01:28.550Z,1041.52
2019-01-06T02:02:28.536Z,1041.53
2019-01-06T02:03:28.521Z,1041.48
2019-01-06T02:04:28.506Z,1041.43
2019-01-06T02:05:28.489Z,1041.43
2019-01-06T02:06:28.473Z,1041.46
2019-01-06T02:07:28.459Z,1041.45
2019-01-06T02:08:28.445Z,1041.4
2019-01-06T02:09:28.428Z,1041.39
2019-01-06T02:10:28.413Z,1041.36
2019-01-06T02:11:28.397Z,1041.37
2019-01-06T02:12:28.381Z,1041.36
2019-01-06T02:13:28.365Z,1041.41
2019-01-06T02:14:28.351Z,1041.34
2019-01-06T02:15:28.337Z,1041.36
2019-01-06T02:16:28.321Z,1041.41
2019-01-06T02:17:28.305Z,1041.36
2019-01-06T02:18:28.290Z,1041.29
2019-01-06T02:19:28.284Z,1041.29
2019-01-06T02:20:28.260Z,1041.31
2019-01-06T02:21:28.244Z,1041.3
2019-01-06T02:22:28.231Z,1041.36
2019-01-06T02:23:28.214Z,1041.31
2019-01-06T02:24:28.199Z,1041.32
2019-01-06T02:25:28.184Z,1041.3
2019-01-06T02:26:28.169Z,1041.31
2019-01-06T02:27:28.153Z,1041.28
2019-01-06T02:28:28.139Z,1041.28
2019-01-06T02:29:28.124Z,1041.28
2019-01-06T02:30:28.108Z,1041.29
2019-01-06T02:31:28.093Z,1041.27
2019-01-06T02:32:28.080Z,1041.21
2019-01-06T02:33:28.063Z,1041.21
2019-01-06T02:34:28.046Z,1041.19
2019-01-06T02:35:28.035Z,1041.21
2019-01-06T02:36:28.019Z,1041.22
2019-01-06T02:37:28.002Z,1041.26
2019-01-06T02:38:27.987Z,1041.27
2019-01-06T02:39:27.972Z,1041.21
2019-01-06T02:40:27.969Z,1041.26
2019-01-06T02:41:27.944Z,1041.22
2019-01-06T02:42:27.930Z,1041.22
2019-01-06T02:43:27.912Z,1041.22
2019-01-06T02:44:27.898Z,1041.26
2019-01-06T02:45:27.883Z,1041.24
2019-01-06T02:46:27.875Z,1041.21
2019-01-06T02:47:27.852Z,1041.19
2019-01-06T02:48:27.837Z,1041.21
2019-01-06T02:49:27.823Z,1041.16
2019-01-06T02:50:27.807Z,1041.18
2019-01-06T02:51:27.793Z,1041.22
2019-01-06T02:52:27.776Z,1041.24
2019-01-06T02:53:27.761Z,1041.27
2019-01-06T02:54:27.749Z,1041.25
2019-01-06T02:55:27.747Z,1041.21
2019-01-06T02:56:27.716Z,1041.2
2019-01-06T02:57:27.701Z,1041.24
2019-01-06T02:58:27.686Z,1041.24
2019-01-06T02:59:27.674Z,1041.23
2019-01-06T03:00:27.657Z,1041.22
2019-01-06T03:01:27.642Z,1041.27
2019-01-06T03:02:27.627Z,1041.28
2019-01-06T03:03:27.612Z,1041.27
2019-01-06T03:04:27.596Z,1041.27
2019-01-06T03:05:27.581Z,1041.28
2019-01-06T03:06:27.567Z,1041.31
2019-01-06T03:07:27.553Z,1041.25
2019-01-06T03:08:27.537Z,1041.3
2019-01-06T03:09:27.522Z,1041.33
2019-01-06T03:10:27.507Z,1041.31
2019-01-06T03:11:27.493Z,1041.31
2019-01-06T03:12:27.477Z,1041.31
2019-01-06T03:13:27.463Z,1041.3
2019-01-06T03:14:27.450Z,1041.28
2019-01-06T03:15:27.435Z,1041.27
2019-01-06T03:16:27.417Z,1041.26
2019-01-06T03:17:27.401Z,1041.27
2019-01-06T03:18:27.387Z,1041.24
2019-01-06T03:19:27.372Z,1041.24
2019-01-06T03:20:27.358Z,1041.2
2019-01-06T03:21:27.342Z,1041.21
2019-01-06T03:22:27.327Z,1041.25
2019-01-06T03:23:27.312Z,1041.25
2019-01-06T03:24:27.297Z,1041.24
2019-01-06T03:25:27.282Z,1041.24
2019-01-06T03:26:27.268Z,1041.26
2019-01-06T03:27:27.252Z,1041.22
2019-01-06T03:28:27.238Z,1041.21
2019-01-06T03:29:27.221Z,1041.21
2019-01-06T03:30:27.212Z,1041.23
2019-01-06T03:31:27.192Z,1041.2
2019-01-06T03:32:27.179Z,1041.25
2019-01-06T03:33:27.162Z,1041.2
2019-01-06T03:34:27.146Z,1041.21
2019-01-06T03:35:27.131Z,1041.26
2019-01-06T03:36:27.118Z,1041.24
2019-01-06T03:37:27.102Z,1041.21
2019-01-06T03:38:27.093Z,1041.16
2019-01-06T03:39:27.073Z,1041.19
2019-01-06T03:40:27.059Z,1041.21
2019-01-06T03:41:27.118Z,1041.18
2019-01-06T03:42:27.029Z,1041.28
2019-01-06T03:43:27.012Z,1041.24
2019-01-06T03:44:26.998Z,1041.23
2019-01-06T03:45:26.982Z,1041.25
2019-01-06T03:46:26.967Z,1041.29
2019-01-06T03:47:26.953Z,1041.32
2019-01-06T03:48:26.938Z,1041.31
2019-01-06T03:49:26.923Z,1041.4
2019-01-06T03:50:26.916Z,1041.44
2019-01-06T03:51:26.893Z,1041.43
2019-01-06T03:52:26.886Z,1041.42
2019-01-06T03:53:26.868Z,1041.48
2019-01-06T03:54:26.859Z,1041.42
2019-01-06T03:55:26.833Z,1041.46
2019-01-06T03:56:26.825Z,1041.46
2019-01-06T03:57:26.805Z,1041.48
2019-01-06T03:58:26.790Z,1041.51
2019-01-06T03:59:26.777Z,1041.48
2019-01-06T04:00:26.758Z,1041.42
2019-01-06T04:01:26.746Z,1041.47
2019-01-06T04:02:26.729Z,1041.47
2019-01-06T04:03:26.713Z,1041.42
2019-01-06T04:04:26.699Z,1041.39
2019-01-06T04:05:26.683Z,1041.35
2019-01-06T04:06:26.669Z,1041.29
2019-01-06T04:07:26.654Z,1041.28
2019-01-06T04:08:26.641Z,1041.23
2019-01-06T04:09:26.624Z,1041.25
2019-01-06T04:10:26.610Z,1041.22
2019-01-06T04:11:26.595Z,1041.24
2019-01-06T04:12:26.578Z,1041.18
2019-01-06T04:13:26.563Z,1041.23
2019-01-06T04:14:26.549Z,1041.16
2019-01-06T04:15:26.533Z,1041.16
2019-01-06T04:16:26.521Z,1041.18
2019-01-06T04:17:26.504Z,1041.17
2019-01-06T04:18:26.489Z,1041.17
2019-01-06T04:19:26.474Z,1041.19
2019-01-06T04:20:26.458Z,1041.23
2019-01-06T04:21:26.444Z,1041.26
2019-01-06T04:22:26.429Z,1041.25
2019-01-06T04:23:26.415Z,1041.24
2019-01-06T04:24:26.398Z,1041.22
2019-01-06T04:25:26.382Z,1041.21
2019-01-06T04:26:26.368Z,1041.19
2019-01-06T04:27:26.352Z,1041.16
2019-01-06T04:28:26.338Z,1041.12
2019-01-06T04:29:26.324Z,1041.11
2019-01-06T04:30:26.312Z,1041.1
2019-01-06T04:31:26.294Z,1041.11
2019-01-06T04:32:26.279Z,1041.16
2019-01-06T04:33:26.265Z,1041.19
2019-01-06T04:34:26.250Z,1041.22
2019-01-06T04:35:26.233Z,1041.24
2019-01-06T04:36:26.218Z,1041.21
2019-01-06T04:37:26.207Z,1041.19
2019-01-06T04:38:26.189Z,1041.21
2019-01-06T04:39:26.174Z,1041.25
2019-01-06T04:40:26.160Z,1041.21
2019-01-06T04:41:26.144Z,1041.22
2019-01-06T04:42:26.129Z,1041.25
2019-01-06T04:43:26.115Z,1041.25
2019-01-06T04:44:26.100Z,1041.28
2019-01-06T04:45:26.094Z,1041.32
2019-01-06T04:46:26.068Z,1041.3
2019-01-06T04:47:26.054Z,1041.31
2019-01-06T04:48:26.041Z,1041.34
2019-01-06T04:49:26.023Z,1041.33
2019-01-06T04:50:26.010Z,1041.32
2019-01-06T04:51:26.000Z,1041.4
2019-01-06T04:52:25.981Z,1041.4
2019-01-06T04:53:25.965Z,1041.43
2019-01-06T04:54:25.951Z,1041.49
2019-01-06T04:55:25.937Z,1041.53
2019-01-06T04:56:25.921Z,1041.61
2019-01-06T04:57:25.906Z,1041.67
2019-01-06T04:58:25.891Z,1041.71
2019-01-06T04:59:25.876Z,1041.76
2019-01-06T05:00:25.860Z,1041.77
2019-01-06T05:01:25.846Z,1041.81
2019-01-06T05:02:25.830Z,1041.83
2019-01-06T05:03:25.815Z,1041.87
2019-01-06T05:04:25.803Z,1041.86
2019-01-06T05:05:25.785Z,1041.89
2019-01-06T05:06:25.769Z,1041.94
2019-01-06T05:07:25.754Z,1041.95
2019-01-06T05:08:25.739Z,1041.94
2019-01-06T05:09:25.723Z,1041.92
2019-01-06T05:10:25.708Z,1041.98
2019-01-06T05:11:25.694Z,1041.95
2019-01-06T05:12:25.679Z,1042.03
2019-01-06T05:13:25.663Z,1042.04
2019-01-06T05:14:25.647Z,1042.1
2019-01-06T05:15:25.629Z,1042.15
2019-01-06T05:16:25.615Z,1042.2
2019-01-06T05:17:25.601Z,1042.24
2019-01-06T05:18:25.585Z,1042.3
2019-01-06T05:19:25.569Z,1042.26
2019-01-06T05:20:25.554Z,1042.31
2019-01-06T05:21:25.540Z,1042.38
2019-01-06T05:22:25.522Z,1042.48
2019-01-06T05:23:25.506Z,1042.54
2019-01-06T05:24:25.492Z,1042.54
2019-01-06T05:25:25.477Z,1042.62
2019-01-06T05:26:25.460Z,1042.68
2019-01-06T05:27:25.445Z,1042.71
2019-01-06T05:28:25.430Z,1042.7
2019-01-06T05:29:25.418Z,1042.71
2019-01-06T05:30:25.401Z,1042.71
2019-01-06T05:31:25.388Z,1042.71
2019-01-06T05:32:25.368Z,1042.8
2019-01-06T05:33:25.350Z,1042.82
2019-01-06T05:34:25.335Z,1042.89
2019-01-06T05:35:25.319Z,1042.91
2019-01-06T05:36:25.304Z,1042.93
2019-01-06T05:37:25.287Z,1042.98
2019-01-06T05:38:25.271Z,1042.99
2019-01-06T05:39:25.255Z,1043.05
2019-01-06T05:40:25.240Z,1043.04
2019-01-06T05:41:25.231Z,1043.1
2019-01-06T05:42:25.207Z,1043.12
2019-01-06T05:43:25.190Z,1043.15
2019-01-06T05:44:25.184Z,1043.19
2019-01-06T05:45:25.169Z,1043.21
2019-01-06T05:46:25.142Z,1043.22
2019-01-06T05:47:25.126Z,1043.21
2019-01-06T05:48:25.109Z,1043.21
2019-01-06T05:49:25.092Z,1043.26
2019-01-06T05:50:25.077Z,1043.26
2019-01-06T05:51:25.060Z,1043.23
2019-01-06T05:52:25.046Z,1043.28
2019-01-06T05:53:25.029Z,1043.3
2019-01-06T05:54:25.038Z,1043.25
2019-01-06T05:55:24.995Z,1043.25
2019-01-06T05:56:24.981Z,1043.19
2019-01-06T05:57:24.964Z,1043.21
2019-01-06T05:58:24.947Z,1043.18
2019-01-06T05:59:24.930Z,1043.16
2019-01-06T06:00:24.914Z,1043.14
2019-01-06T06:01:24.898Z,1043.11
2019-01-06T06:02:24.881Z,1043.11
2019-01-06T06:03:24.865Z,1043.17
2019-01-06T06:04:24.850Z,1043.19
2019-01-06T06:05:24.833Z,1043.14
2019-01-06T06:06:24.815Z,1043.13
2019-01-06T06:07:24.800Z,1043.14
2019-01-06T06:08:24.784Z,1043.14
2019-01-06T06:09:24.770Z,1043.18
2019-01-06T06:10:24.752Z,1043.18
2019-01-06T06:11:24.737Z,1043.18
2019-01-06T06:12:24.720Z,1043.19
2019-01-06T06:13:24.701Z,1043.2
2019-01-06T06:14:24.691Z,1043.24
2019-01-06T06:15:24.672Z,1043.23
2019-01-06T06:16:24.658Z,1043.23
2019-01-06T06:17:24.639Z,1043.2
2019-01-06T06:18:24.622Z,1043.17
2019-01-06T06:19:24.604Z,1043.15
2019-01-06T06:20:24.590Z,1043.19
2019-01-06T06:21:24.572Z,1043.12
2019-01-06T06:22:24.559Z,1043.09
2019-01-06T06:23:24.541Z,1043.13
2019-01-06T06:24:24.522Z,1043.14
2019-01-06T06:25:24.508Z,1043.07
2019-01-06T06:26:24.493Z,1043.09
2019-01-06T06:27:24.475Z,1043.07
2019-01-06T06:28:24.459Z,1043.05
2019-01-06T06:29:24.444Z,1043.06
2019-01-06T06:30:24.428Z,1043.04
2019-01-06T06:31:24.416Z,1043.05
2019-01-06T06:32:24.396Z,1043.05
2019-01-06T06:33:24.381Z,1043.04
2019-01-06T06:34:24.364Z,1043.05
2019-01-06T06:35:24.347Z,1043.01
2019-01-06T06:36:24.333Z,1043.02
2019-01-06T06:37:24.316Z,1043.01
2019-01-06T06:38:24.300Z,1043.02
2019-01-06T06:39:24.284Z,1042.99
2019-01-06T06:40:24.268Z,1042.99
2019-01-06T06:41:24.251Z,1043.03
2019-01-06T06:42:24.237Z,1043.01
2019-01-06T06:43:24.219Z,1043.01
2019-01-06T06:44:24.207Z,1043.03
2019-01-06T06:45:24.188Z,1043.03
2019-01-06T06:46:24.172Z,1043.03
2019-01-06T06:47:24.157Z,1043.04
2019-01-06T06:48:24.142Z,1043.03
2019-01-06T06:49:24.126Z,1043.03
2019-01-06T06:50:24.109Z,1043.04
2019-01-06T06:51:24.093Z,1043.03
2019-01-06T06:52:24.078Z,1043.03
2019-01-06T06:53:24.062Z,1043.02
2019-01-06T06:54:24.050Z,1042.94
2019-01-06T06:55:24.031Z,1042.96
2019-01-06T06:56:24.016Z,1042.96
2019-01-06T06:57:23.999Z,1042.9
2019-01-06T06:58:23.984Z,1042.92
2019-01-06T06:59:23.969Z,1042.93
2019-01-06T07:00:23.952Z,1042.92
2019-01-06T07:01:23.936Z,1042.91
2019-01-06T07:02:23.920Z,1042.94
2019-01-06T07:03:23.906Z,1042.91
2019-01-06T07:04:23.891Z,1042.97
2019-01-06T07:05:23.876Z,1042.96
2019-01-06T07:06:23.860Z,1042.97
2019-01-06T07:07:23.847Z,1042.98
2019-01-06T07:08:23.829Z,1042.95
2019-01-06T07:09:23.814Z,1042.97
2019-01-06T07:10:23.799Z,1043
2019-01-06T07:11:23.789Z,1043.06
2019-01-06T07:12:23.767Z,1043.07
2019-01-06T07:13:23.764Z,1043.05
2019-01-06T07:14:23.828Z,1043.02
2019-01-06T07:15:23.719Z,1043.01
2019-01-06T07:16:23.705Z,1042.98
2019-01-06T07:17:23.691Z,1043.04
2019-01-06T07:18:23.681Z,1043.04
2019-01-06T07:19:23.659Z,1043.04
2019-01-06T07:20:23.643Z,1043.06
2019-01-06T07:21:23.629Z,1043.07
2019-01-06T07:22:23.614Z,1043.1
2019-01-06T07:23:23.598Z,1043.13
2019-01-06T07:24:23.582Z,1043.11
2019-01-06T07:25:23.568Z,1043.12
2019-01-06T07:26:23.552Z,1043.16
2019-01-06T07:27:23.537Z,1043.16
2019-01-06T07:28:23.520Z,1043.15
2019-01-06T07:29:23.506Z,1043.1
2019-01-06T07:30:23.490Z,1043.11
2019-01-06T07:31:23.480Z,1043.12
2019-01-06T07:32:23.461Z,1043.13
2019-01-06T07:33:23.446Z,1043.14
2019-01-06T07:34:23.429Z,1043.17
2019-01-06T07:35:23.414Z,1043.14
2019-01-06T07:36:23.400Z,1043.15
2019-01-06T07:37:23.384Z,1043.11
2019-01-06T07:38:23.368Z,1043.08
2019-01-06T07:39:23.353Z,1043.13
2019-01-06T07:40:23.337Z,1043.13
2019-01-06T07:41:23.322Z,1043.13
2019-01-06T07:42:23.307Z,1043.18
2019-01-06T07:43:23.291Z,1043.2
2019-01-06T07:44:23.277Z,1043.21
2019-01-06T07:45:23.261Z,1043.21
2019-01-06T07:46:23.247Z,1043.26
2019-01-06T07:47:23.232Z,1043.26
2019-01-06T07:48:23.216Z,1043.27
2019-01-06T07:49:23.202Z,1043.29
2019-01-06T07:50:23.186Z,1043.3
2019-01-06T07:51:23.174Z,1043.29
2019-01-06T07:52:23.154Z,1043.29
2019-01-06T07:53:23.139Z,1043.3
2019-01-06T07:54:23.124Z,1043.32
2019-01-06T07:55:23.111Z,1043.35
2019-01-06T07:56:23.094Z,1043.36
2019-01-06T07:57:23.080Z,1043.35
2019-01-06T07:58:23.065Z,1043.4
2019-01-06T07:59:23.049Z,1043.39
2019-01-06T08:00:23.044Z,1043.35
2019-01-06T08:01:23.019Z,1043.35
2019-01-06T08:02:23.003Z,1043.33
2019-01-06T08:03:23.002Z,1043.36
2019-01-06T08:04:22.973Z,1043.32
2019-01-06T08:05:22.958Z,1043.3
2019-01-06T08:06:22.943Z,1043.26
2019-01-06T08:07:22.927Z,1043.28
2019-01-06T08:08:22.912Z,1043.29
2019-01-06T08:09:22.900Z,1043.26
2019-01-06T08:10:22.882Z,1043.26
2019-01-06T08:11:22.868Z,1043.21
2019-01-06T08:12:22.855Z,1043.15
2019-01-06T08:13:22.841Z,1043.2
2019-01-06T08:14:22.822Z,1043.21
2019-01-06T08:15:22.808Z,1043.17
2019-01-06T08:16:22.793Z,1043.14
2019-01-06T08:17:22.777Z,1043.17
2019-01-06T08:18:22.761Z,1043.12
2019-01-06T08:19:22.746Z,1043.13
2019-01-06T08:20:22.733Z,1043.15
2019-01-06T08:21:22.718Z,1043.14
2019-01-06T08:22:22.707Z,1043.17
2019-01-06T08:23:22.688Z,1043.15
2019-01-06T08:24:22.673Z,1043.16
2019-01-06T08:25:22.658Z,1043.2
2019-01-06T08:26:22.643Z,1043.2
2019-01-06T08:27:22.629Z,1043.25
2019-01-06T08:28:22.613Z,1043.24
2019-01-06T08:29:22.598Z,1043.25
2019-01-06T08:30:22.587Z,1043.21
2019-01-06T08:31:22.569Z,1043.22
2019-01-06T08:32:22.553Z,1043.21
2019-01-06T08:33:22.539Z,1043.23
2019-01-06T08:34:22.526Z,1043.24
2019-01-06T08:35:22.510Z,1043.25
2019-01-06T08:36:22.494Z,1043.24
2019-01-06T08:37:22.480Z,1043.23
2019-01-06T08:38:22.465Z,1043.25
2019-01-06T08:39:22.451Z,1043.23
2019-01-06T08:40:22.436Z,1043.27
2019-01-06T08:41:22.475Z,1043.34
2019-01-06T08:42:22.408Z,1043.38
2019-01-06T08:43:22.393Z,1043.41
2019-01-06T08:44:22.381Z,1043.39
2019-01-06T08:45:22.363Z,1043.41
2019-01-06T08:46:22.354Z,1043.39
2019-01-06T08:47:22.333Z,1043.39
2019-01-06T08:48:22.319Z,1043.36
2019-01-06T08:49:22.303Z,1043.32
2019-01-06T08:50:22.289Z,1043.34
2019-01-06T08:51:22.275Z,1043.32
2019-01-06T08:52:22.260Z,1043.24
2019-01-06T08:53:22.245Z,1043.14
2019-01-06T08:54:22.229Z,1043.04
2019-01-06T08:55:22.217Z,1042.94
2019-01-06T08:56:22.203Z,1042.85
2019-01-06T08:57:22.186Z,1042.85
2019-01-06T08:58:22.171Z,1042.85
2019-01-06T08:59:22.157Z,1042.79
2019-01-06T09:00:22.142Z,1042.77
2019-01-06T09:01:22.127Z,1042.72
2019-01-06T09:02:22.113Z,1042.57
2019-01-06T09:03:22.097Z,1042.54
2019-01-06T09:04:22.085Z,1042.5
2019-01-06T09:05:22.070Z,1042.47
2019-01-06T09:06:22.056Z,1042.4
2019-01-06T09:07:22.042Z,1042.32
2019-01-06T09:08:22.027Z,1042.22
2019-01-06T09:09:22.012Z,1042.18
2019-01-06T09:10:22.000Z,1042.11
2019-01-06T09:11:21.985Z,1042.05
2019-01-06T09:12:21.971Z,1042.02
2019-01-06T09:13:21.957Z,1041.92
2019-01-06T09:14:21.943Z,1041.94
2019-01-06T09:15:21.929Z,1041.94
2019-01-06T09:16:21.914Z,1041.94
2019-01-06T09:17:21.901Z,1041.94
2019-01-06T09:18:21.889Z,1041.97
2019-01-06T09:19:21.875Z,1041.94
2019-01-06T09:20:21.860Z,1041.95
2019-01-06T09:21:21.848Z,1041.89
2019-01-06T09:22:21.838Z,1041.84
2019-01-06T09:23:21.820Z,1041.87
2019-01-06T09:24:21.808Z,1041.87
2019-01-06T09:25:21.795Z,1041.82
2019-01-06T09:26:21.781Z,1041.76
2019-01-06T09:27:21.771Z,1041.78
2019-01-06T09:28:21.755Z,1041.76
2019-01-06T09:29:21.740Z,1041.77
2019-01-06T09:30:21.729Z,1041.78
2019-01-06T09:31:21.715Z,1041.75
2019-01-06T09:32:21.701Z,1041.77
2019-01-06T09:33:21.689Z,1041.75
2019-01-06T09:34:21.675Z,1041.78
2019-01-06T09:35:21.661Z,1041.72
2019-01-06T09:36:21.654Z,1041.69
2019-01-06T09:37:21.641Z,1041.65
2019-01-06T09:38:21.623Z,1041.54
2019-01-06T09:39:21.610Z,1041.5
2019-01-06T09:40:21.596Z,1041.52
2019-01-06T09:41:21.584Z,1041.52
2019-01-06T09:42:21.570Z,1041.5
2019-01-06T09:43:21.558Z,1041.49
2019-01-06T09:44:21.544Z,1041.47
2019-01-06T09:45:21.781Z,1041.45
2019-01-06T09:46:21.518Z,1041.48
2019-01-06T09:47:21.506Z,1041.44
2019-01-06T09:48:21.494Z,1041.37
2019-01-06T09:49:21.482Z,1041.42
2019-01-06T09:50:21.470Z,1041.44
2019-01-06T09:51:21.456Z,1041.47
2019-01-06T09:52:21.444Z,1041.43
2019-01-06T09:53:21.433Z,1041.35
2019-01-06T09:54:21.447Z,1041.32
2019-01-06T09:55:21.405Z,1041.33
2019-01-06T09:56:21.392Z,1041.25
2019-01-06T09:57:21.380Z,1041.21
2019-01-06T09:58:21.368Z,1041.18
2019-01-06T09:59:21.355Z,1041.11
2019-01-06T10:00:21.343Z,1041.1
2019-01-06T10:01:21.331Z,1041.04
2019-01-06T10:02:21.319Z,1041.09
2019-01-06T10:03:21.306Z,1041.07
2019-01-06T10:04:21.297Z,1041.05
2019-01-06T10:05:21.281Z,1041.01
2019-01-06T10:06:21.268Z,1040.92
2019-01-06T10:07:21.257Z,1040.83
2019-01-06T10:08:21.245Z,1040.75
2019-01-06T10:09:21.232Z,1040.72
2019-01-06T10:10:21.221Z,1040.59
2019-01-06T10:11:21.207Z,1040.53
2019-01-06T10:12:21.199Z,1040.58
2019-01-06T10:13:21.185Z,1040.59
2019-01-06T10:14:21.173Z,1040.63
2019-01-06T10:15:21.162Z,1040.69
2019-01-06T10:16:21.149Z,1040.81
2019-01-06T10:17:21.137Z,1040.91
2019-01-06T10:18:21.124Z,1040.96
2019-01-06T10:19:21.113Z,1040.99
2019-01-06T10:20:21.103Z,1041.02
2019-01-06T10:21:21.091Z,1041.1
2019-01-06T10:22:21.077Z,1041.1
2019-01-06T10:23:21.065Z,1041.15
2019-01-06T10:24:21.055Z,1041.17
2019-01-06T10:25:21.042Z,1041.25
2019-01-06T10:26:21.030Z,1041.29
2019-01-06T10:27:21.042Z,1041.33
2019-01-06T10:28:21.082Z,1041.33
2019-01-06T10:29:20.993Z,1041.38
2019-01-06T10:30:20.982Z,1041.46
2019-01-06T10:31:20.971Z,1041.49
2019-01-06T10:32:20.960Z,1041.49
2019-01-06T10:33:20.960Z,1041.46
2019-01-06T10:34:20.938Z,1041.41
2019-01-06T10:35:20.923Z,1041.43
2019-01-06T10:36:20.910Z,1041.47
2019-01-06T10:37:20.899Z,1041.47
2019-01-06T10:38:20.886Z,1041.42
2019-01-06T10:39:20.875Z,1041.35
2019-01-06T10:40:20.879Z,1041.31
2019-01-06T10:41:20.849Z,1041.29
2019-01-06T10:42:20.838Z,1041.28
2019-01-06T10:43:20.825Z,1041.32
2019-01-06T10:44:20.813Z,1041.28
2019-01-06T10:45:20.804Z,1041.23
2019-01-06T10:46:20.790Z,1041.13
2019-01-06T10:47:20.777Z,1040.97
2019-01-06T10:48:20.765Z,1040.87
2019-01-06T10:49:20.753Z,1040.89
2019-01-06T10:50:20.740Z,1040.87
2019-01-06T10:51:20.728Z,1040.88
2019-01-06T10:52:20.718Z,1040.86
2019-01-06T10:53:20.704Z,1040.83
2019-01-06T10:54:20.693Z,1040.72
2019-01-06T10:55:20.681Z,1040.66
2019-01-06T10:56:20.669Z,1040.62
2019-01-06T10:57:20.657Z,1040.61
2019-01-06T10:58:20.645Z,1040.63
2019-01-06T10:59:20.632Z,1040.6
2019-01-06T11:00:20.621Z,1040.55
2019-01-06T11:01:20.609Z,1040.48
2019-01-06T11:02:20.596Z,1040.48
2019-01-06T11:03:20.585Z,1040.46
2019-01-06T11:04:20.575Z,1040.4
2019-01-06T11:05:20.573Z,1040.28
2019-01-06T11:06:20.553Z,1040.18
2019-01-06T11:07:20.539Z,1040.04
2019-01-06T11:08:20.530Z,1040.06
2019-01-06T11:09:20.515Z,1040.01
2019-01-06T11:10:20.504Z,1040.03
2019-01-06T11:11:20.493Z,1039.99
2019-01-06T11:12:20.487Z,1039.91
2019-01-06T11:13:20.470Z,1039.89
2019-01-06T11:14:20.459Z,1039.84
2019-01-06T11:15:20.448Z,1039.85
2019-01-06T11:16:20.438Z,1039.93
2019-01-06T11:17:20.435Z,1039.92
2019-01-06T11:18:20.415Z,1039.98
2019-01-06T11:19:20.413Z,1039.98
2019-01-06T11:20:20.394Z,1040.05
2019-01-06T11:21:20.381Z,1040.08
2019-01-06T11:22:20.370Z,1040.11
2019-01-06T11:23:20.361Z,1040.19
2019-01-06T11:24:20.349Z,1040.22
2019-01-06T11:25:20.339Z,1040.35
2019-01-06T11:26:20.332Z,1040.37
2019-01-06T11:27:20.316Z,1040.38
2019-01-06T11:28:20.307Z,1040.33
2019-01-06T11:29:20.296Z,1040.27
2019-01-06T11:30:20.285Z,1040.15
2019-01-06T11:31:20.273Z,1040.13
2019-01-06T11:32:20.261Z,1040.07
2019-01-06T11:33:20.250Z,1040.1
2019-01-06T11:34:20.240Z,1040.15
2019-01-06T11:35:20.230Z,1040.2
2019-01-06T11:36:20.218Z,1040.23
2019-01-06T11:37:20.207Z,1040.18
2019-01-06T11:38:20.195Z,1040.2
2019-01-06T11:39:20.186Z,1040.21
2019-01-06T11:40:20.174Z,1040.21
2019-01-06T11:41:20.164Z,1040.21
2019-01-06T11:42:20.152Z,1040.23
2019-01-06T11:43:20.141Z,1040.23
2019-01-06T11:44:20.133Z,1040.23
2019-01-06T11:45:20.121Z,1040.2
2019-01-06T11:46:20.107Z,1040.19
2019-01-06T11:47:20.096Z,1040.22
2019-01-06T11:48:20.087Z,1040.22
2019-01-06T11:49:20.076Z,1040.27
2019-01-06T11:50:20.067Z,1040.33
2019-01-06T11:51:20.054Z,1040.4
2019-01-06T11:52:20.044Z,1040.47
2019-01-06T11:53:20.032Z,1040.6
2019-01-06T11:54:20.022Z,1040.67
2019-01-06T11:55:20.011Z,1040.68
2019-01-06T11:56:19.998Z,1040.72
2019-01-06T11:57:19.986Z,1040.76
2019-01-06T11:58:19.975Z,1040.8
2019-01-06T11:59:19.965Z,1040.84
2019-01-06T12:00:19.954Z,1040.95
2019-01-06T12:01:19.942Z,1040.95
2019-01-06T12:02:19.932Z,1040.96
2019-01-06T12:03:19.924Z,1040.93
2019-01-06T12:04:19.909Z,1040.87
2019-01-06T12:05:19.897Z,1040.84
2019-01-06T12:06:19.886Z,1040.86
2019-01-06T12:07:19.874Z,1040.84